createdAt,value
2023-10-23T00:04:36.009Z,11.40
2023-10-23T00:14:39.862Z,10.80
2023-10-23T00:19:41.582Z,6.83
2023-10-23T00:24:43.193Z,10.20
2023-10-23T00:29:44.821Z,8.17
2023-10-23T00:34:46.391Z,6.88
2023-10-23T00:39:48.112Z,7.28
2023-10-23T00:44:49.706Z,6.87
2023-10-23T00:49:51.691Z,7.68
2023-10-23T00:54:53.987Z,7.07
2023-10-23T00:59:56.323Z,7.40
2023-10-23T01:04:57.983Z,9.63
2023-10-23T01:09:59.798Z,8.10
2023-10-23T01:15:01.386Z,9.43
2023-10-23T01:20:04.281Z,7.75
2023-10-23T01:25:14.663Z,6.05
2023-10-23T01:30:16.325Z,9.00
2023-10-23T01:35:17.993Z,9.37
2023-10-23T01:40:19.827Z,15.53
2023-10-23T01:45:21.438Z,19.87
2023-10-23T01:50:23.115Z,19.63
2023-10-23T01:55:24.797Z,14.53
2023-10-23T02:00:26.961Z,9.83
2023-10-23T02:05:28.654Z,8.93
2023-10-23T02:10:30.435Z,9.93
2023-10-23T02:15:32.179Z,8.57
2023-10-23T02:20:33.769Z,8.73
2023-10-23T02:25:35.361Z,8.38
2023-10-23T02:30:37.688Z,12.90
2023-10-23T02:35:39.408Z,12.45
2023-10-23T02:40:41.180Z,10.37
2023-10-23T02:45:42.733Z,8.77
2023-10-23T02:50:56.048Z,11.00
2023-10-23T02:55:57.633Z,9.52
2023-10-23T03:00:59.199Z,8.75
2023-10-23T03:06:00.812Z,9.85
2023-10-23T03:11:02.362Z,10.20
2023-10-23T03:16:05.058Z,9.40
2023-10-23T03:21:06.726Z,10.27
2023-10-23T03:26:08.552Z,8.13
2023-10-23T03:31:10.195Z,12.90
2023-10-23T03:36:11.808Z,9.40
2023-10-23T03:41:13.482Z,10.60
2023-10-23T03:46:15.221Z,11.00
2023-10-23T03:51:16.822Z,10.50
2023-10-23T03:56:18.540Z,12.50
2023-10-23T04:01:20.168Z,12.40
2023-10-23T04:06:21.932Z,16.80
2023-10-23T04:11:23.762Z,12.23
2023-10-23T04:16:25.371Z,11.40
2023-10-23T04:21:27.062Z,13.95
2023-10-23T04:26:28.846Z,10.67
2023-10-23T04:31:30.576Z,13.40
2023-10-23T04:36:32.175Z,10.77
2023-10-23T04:41:33.814Z,11.20
2023-10-23T04:46:35.350Z,13.45
2023-10-23T04:51:37.117Z,11.48
2023-10-23T04:56:40.633Z,14.10
2023-10-23T05:01:42.272Z,12.63
2023-10-23T05:06:44.015Z,13.27
2023-10-23T05:11:45.635Z,11.33
2023-10-23T05:16:47.594Z,15.20
2023-10-23T05:21:49.281Z,14.48
2023-10-23T05:26:50.880Z,21.20
2023-10-23T05:31:52.433Z,17.90
2023-10-23T05:36:54.145Z,14.02
2023-10-23T05:41:55.771Z,15.23
2023-10-23T05:46:57.477Z,15.88
2023-10-23T05:51:59.108Z,20.93
2023-10-23T05:57:01.224Z,12.60
2023-10-23T06:02:02.824Z,13.77
2023-10-23T06:07:04.641Z,16.85
2023-10-23T06:12:07.475Z,18.77
2023-10-23T06:22:10.759Z,27.63
2023-10-23T06:27:12.489Z,17.33
2023-10-23T06:32:14.481Z,17.20
2023-10-23T06:37:18.243Z,17.23
2023-10-23T06:42:19.954Z,20.90
2023-10-23T06:47:22.411Z,16.92
2023-10-23T06:52:24.049Z,15.07
2023-10-23T06:57:25.692Z,12.57
2023-10-23T07:02:27.273Z,12.07
2023-10-23T07:07:30.545Z,14.57
2023-10-23T07:12:32.578Z,14.32
2023-10-23T07:17:35.393Z,12.20
2023-10-23T07:22:37.788Z,10.13
2023-10-23T07:27:42.192Z,11.82
2023-10-23T07:32:44.356Z,12.35
2023-10-23T07:37:46.057Z,12.10
2023-10-23T07:42:47.691Z,15.33
2023-10-23T07:47:49.933Z,12.27
2023-10-23T07:52:52.691Z,10.45
2023-10-23T07:57:54.427Z,11.50
2023-10-23T08:02:56.341Z,17.67
2023-10-23T08:07:58.518Z,14.13
2023-10-23T08:13:00.624Z,17.42
2023-10-23T08:18:02.940Z,16.90
2023-10-23T08:23:04.666Z,18.00
2023-10-23T08:28:06.308Z,14.07
2023-10-23T08:33:08.642Z,14.80
2023-10-23T08:38:10.248Z,16.30
2023-10-23T08:43:12.247Z,16.30
2023-10-23T08:48:14.352Z,13.63
2023-10-23T08:53:16.393Z,16.67
2023-10-23T08:58:19.077Z,12.48
2023-10-23T09:04:02.573Z,15.55
2023-10-23T09:08:44.442Z,10.98
2023-10-23T09:13:45.987Z,11.15
2023-10-23T09:18:52.758Z,13.80
2023-10-23T09:23:56.996Z,10.98
2023-10-23T09:28:58.500Z,11.88
2023-10-23T09:34:01.726Z,11.67
2023-10-23T09:39:04.020Z,14.15
2023-10-23T09:44:06.070Z,11.25
2023-10-23T09:49:07.754Z,16.23
2023-10-23T09:54:17.962Z,14.02
2023-10-23T09:59:22.426Z,9.82
2023-10-23T10:04:30.369Z,12.07
2023-10-23T10:09:33.288Z,10.48
2023-10-23T10:14:35.375Z,9.23
2023-10-23T10:19:38.811Z,13.05
2023-10-23T10:24:41.384Z,8.10
2023-10-23T10:29:44.085Z,8.05
2023-10-23T10:34:55.928Z,6.03
2023-10-23T10:39:59.301Z,8.70
2023-10-23T10:45:07.628Z,6.00
2023-10-23T10:50:11.449Z,5.85
2023-10-23T10:55:14.075Z,6.15
2023-10-23T11:00:16.317Z,9.18
2023-10-23T11:05:17.903Z,5.95
2023-10-23T11:10:21.761Z,5.95
2023-10-23T11:15:23.435Z,3.55
2023-10-23T11:20:29.462Z,5.47
2023-10-23T11:25:31.338Z,5.57
2023-10-23T11:30:32.969Z,10.98
2023-10-23T11:35:34.674Z,3.58
2023-10-23T11:40:36.624Z,4.55
2023-10-23T11:45:40.488Z,7.05
2023-10-23T11:50:43.608Z,5.03
2023-10-23T11:55:45.830Z,5.07
2023-10-23T12:05:49.219Z,7.40
2023-10-23T12:10:51.149Z,4.40
2023-10-23T12:15:52.781Z,5.47
2023-10-23T12:20:56.064Z,7.70
2023-10-23T12:25:58.847Z,6.97
2023-10-23T12:31:00.458Z,6.13
2023-10-23T12:36:05.197Z,6.90
2023-10-23T12:41:06.928Z,5.85
2023-10-23T12:46:09.244Z,6.38
2023-10-23T12:51:11.694Z,3.95
2023-10-23T13:01:14.801Z,6.43
2023-10-23T13:06:16.657Z,5.18
2023-10-23T13:11:18.259Z,4.30
2023-10-23T13:16:20.010Z,5.00
2023-10-23T13:21:31.446Z,5.65
2023-10-23T13:26:38.682Z,6.70
2023-10-23T13:31:40.417Z,7.00
2023-10-23T13:36:42.161Z,8.02
2023-10-23T13:41:44.178Z,5.57
2023-10-23T13:46:46.459Z,6.15
2023-10-23T13:51:48.170Z,7.03
2023-10-23T13:56:49.710Z,8.63
2023-10-23T14:01:51.322Z,6.13
2023-10-23T14:06:52.982Z,7.10
2023-10-23T14:11:54.539Z,9.32
2023-10-23T14:17:02.308Z,8.95
2023-10-23T14:22:04.042Z,9.18
2023-10-23T14:27:05.673Z,8.27
2023-10-23T14:32:07.413Z,10.02
2023-10-23T14:37:09.244Z,7.65
2023-10-23T14:42:11.284Z,8.05
2023-10-23T14:47:13.654Z,9.98
2023-10-23T14:52:15.624Z,7.45
2023-10-23T14:57:17.246Z,10.63
2023-10-23T15:02:18.908Z,10.32
2023-10-23T15:07:20.523Z,8.63
2023-10-23T15:12:22.583Z,5.82
2023-10-23T15:17:24.385Z,8.30
2023-10-23T15:22:27.143Z,7.18
2023-10-23T15:27:28.885Z,6.32
2023-10-23T15:32:32.911Z,9.00
2023-10-23T15:37:34.605Z,11.38
2023-10-23T15:42:36.189Z,10.25
2023-10-23T15:47:37.837Z,6.97
2023-10-23T15:52:39.485Z,9.60
2023-10-23T15:57:41.147Z,10.02
2023-10-23T16:02:42.736Z,8.40
2023-10-23T16:07:44.399Z,9.30
2023-10-23T16:12:46.044Z,7.83
2023-10-23T16:17:48.051Z,12.73
2023-10-23T16:22:49.721Z,14.10
2023-10-23T16:27:53.689Z,9.83
2023-10-23T16:32:56.998Z,9.93
2023-10-23T16:37:59.325Z,7.78
2023-10-23T16:43:02.427Z,11.00
2023-10-23T16:48:04.751Z,12.70
2023-10-23T16:53:07.145Z,10.82
2023-10-23T17:03:13.424Z,8.90
2023-10-23T17:08:21.341Z,13.05
2023-10-23T17:13:27.903Z,19.30
2023-10-23T17:18:31.350Z,13.27
2023-10-23T17:23:35.859Z,20.65
2023-10-23T17:28:40.086Z,15.48
2023-10-23T17:33:43.303Z,13.50
2023-10-23T17:38:48.510Z,10.52
2023-10-23T17:43:53.548Z,11.55
2023-10-23T17:48:57.209Z,8.30
2023-10-23T17:54:05.681Z,12.20
2023-10-23T17:59:09.938Z,10.38
2023-10-23T18:04:13.512Z,12.55
2023-10-23T18:09:17.288Z,17.13
2023-10-23T18:14:25.420Z,15.25
2023-10-23T18:19:30.300Z,17.33
2023-10-23T18:24:34.599Z,18.77
2023-10-23T18:29:41.957Z,15.98
2023-10-23T18:34:46.811Z,19.40
2023-10-23T18:39:50.741Z,14.10
2023-10-23T18:44:55.887Z,16.13
2023-10-23T18:50:02.497Z,15.02
2023-10-23T18:55:06.372Z,16.58
2023-10-23T19:00:11.019Z,17.17
2023-10-23T19:05:14.897Z,19.70
2023-10-23T19:10:21.485Z,16.85
2023-10-23T19:15:24.907Z,19.63
2023-10-23T19:20:28.910Z,18.88
2023-10-23T19:25:33.511Z,15.38
2023-10-23T19:30:38.503Z,19.45
2023-10-23T19:35:42.290Z,21.75
2023-10-23T19:40:51.412Z,34.45
2023-10-23T19:45:55.129Z,29.65
2023-10-23T19:51:01.859Z,23.80
2023-10-23T19:56:06.645Z,22.10
2023-10-23T20:01:10.122Z,23.77
2023-10-23T20:06:14.142Z,25.40
2023-10-23T20:11:18.175Z,27.10
2023-10-23T20:16:21.156Z,33.30
2023-10-23T20:21:23.875Z,30.15
2023-10-23T20:26:25.605Z,30.55
2023-10-23T20:31:27.336Z,27.67
2023-10-23T20:36:29.052Z,28.40
2023-10-23T20:41:30.619Z,22.63
2023-10-23T20:46:32.597Z,23.00
2023-10-23T20:51:34.216Z,22.38
2023-10-23T20:56:35.969Z,21.47
2023-10-23T21:01:37.845Z,34.20
2023-10-23T21:06:39.452Z,26.13
2023-10-23T21:11:41.180Z,25.23
2023-10-23T21:16:43.317Z,25.83
2023-10-23T21:21:46.613Z,26.60
2023-10-23T21:26:49.136Z,26.15
2023-10-23T21:31:52.919Z,25.35
2023-10-23T21:36:54.824Z,26.48
2023-10-23T21:41:56.409Z,29.13
2023-10-23T21:46:58.043Z,28.15
2023-10-23T21:52:00.367Z,25.97
2023-10-23T21:57:22.597Z,24.48
2023-10-23T22:02:24.186Z,22.93
2023-10-23T22:07:26.038Z,24.45
2023-10-23T22:12:27.978Z,24.00
2023-10-23T22:17:29.562Z,23.13
2023-10-23T22:22:31.411Z,20.03
2023-10-23T22:27:34.940Z,19.77
2023-10-23T22:32:36.795Z,21.42
2023-10-23T22:38:00.234Z,22.17
2023-10-23T22:43:00.100Z,22.85
2023-10-23T22:48:01.716Z,22.67
2023-10-23T22:53:03.629Z,22.57
2023-10-23T22:58:06.578Z,20.83
2023-10-23T23:03:08.632Z,21.08
2023-10-23T23:08:13.627Z,23.65
2023-10-23T23:13:15.609Z,21.35
2023-10-23T23:18:20.105Z,22.00
2023-10-23T23:23:22.004Z,21.13
2023-10-23T23:28:23.636Z,23.48
2023-10-23T23:33:25.387Z,23.10
2023-10-23T23:38:27.013Z,24.47
2023-10-23T23:43:28.646Z,24.07
2023-10-23T23:48:30.452Z,24.60
2023-10-23T23:53:32.000Z,27.70
2023-10-23T23:58:33.674Z,23.55
